createdAt,value
2022-09-14T00:01:26.506Z,67.00
2022-09-14T00:03:55.223Z,67.34
2022-09-14T00:06:22.419Z,66.73
2022-09-14T00:08:54.223Z,67.21
2022-09-14T00:11:22.170Z,67.56
2022-09-14T00:13:49.530Z,67.35
2022-09-14T00:16:21.939Z,67.10
2022-09-14T00:18:57.406Z,67.54
2022-09-14T00:21:24.774Z,67.33
2022-09-14T00:23:51.712Z,67.80
2022-09-14T00:26:21.413Z,67.94
2022-09-14T00:28:50.482Z,67.80
2022-09-14T00:31:18.250Z,68.33
2022-09-14T00:33:48.025Z,68.30
2022-09-14T00:36:19.939Z,68.35
2022-09-14T00:38:47.746Z,68.02
2022-09-14T00:41:17.762Z,68.19
2022-09-14T00:44:10.868Z,68.38
2022-09-14T00:46:43.042Z,68.51
2022-09-14T00:49:27.820Z,68.72
2022-09-14T00:52:09.736Z,68.74
2022-09-14T00:54:41.944Z,68.35
2022-09-14T00:57:08.833Z,68.33
2022-09-14T00:59:37.311Z,68.74
2022-09-14T01:02:04.958Z,68.57
2022-09-14T01:04:32.037Z,68.58
2022-09-14T01:07:04.694Z,68.87
2022-09-14T01:09:38.293Z,69.05
2022-09-14T01:12:43.064Z,68.82
2022-09-14T01:15:32.109Z,68.92
2022-09-14T01:18:08.431Z,69.38
2022-09-14T01:24:18.845Z,69.12
2022-09-14T01:26:59.303Z,69.29
2022-09-14T01:33:32.640Z,69.80
2022-09-14T01:36:02.795Z,69.86
2022-09-14T01:38:36.148Z,69.52
2022-09-14T01:41:13.703Z,70.00
2022-09-14T01:44:06.845Z,70.22
2022-09-14T01:50:27.036Z,70.36
2022-09-14T01:53:27.068Z,70.46
2022-09-14T01:56:15.371Z,70.34
2022-09-14T01:58:46.011Z,70.18
2022-09-14T02:01:17.062Z,69.96
2022-09-14T02:03:48.359Z,70.26
2022-09-14T02:06:31.784Z,70.37
2022-09-14T02:09:00.235Z,70.58
2022-09-14T02:11:27.294Z,70.60
2022-09-14T02:13:54.203Z,70.28
2022-09-14T02:16:22.054Z,70.93
2022-09-14T02:18:49.781Z,70.64
2022-09-14T02:21:19.772Z,70.64
2022-09-14T02:23:49.125Z,70.98
2022-09-14T02:26:16.933Z,71.31
2022-09-14T02:28:44.136Z,71.06
2022-09-14T02:31:40.738Z,70.71
2022-09-14T02:34:26.486Z,70.53
2022-09-14T02:37:05.568Z,70.51
2022-09-14T02:39:53.807Z,70.67
2022-09-14T02:42:37.133Z,70.93
2022-09-14T02:45:29.981Z,71.09
2022-09-14T02:48:01.338Z,70.65
2022-09-14T02:50:45.103Z,70.36
2022-09-14T02:53:21.201Z,70.84
2022-09-14T02:55:54.781Z,70.92
2022-09-14T02:58:21.885Z,70.98
2022-09-14T03:00:50.825Z,71.33
2022-09-14T03:03:19.948Z,71.33
2022-09-14T03:05:47.737Z,71.20
2022-09-14T03:08:14.949Z,71.06
2022-09-14T03:10:43.632Z,71.14
2022-09-14T03:13:11.569Z,71.45
2022-09-14T03:15:38.971Z,71.40
2022-09-14T03:18:10.026Z,71.18
2022-09-14T03:20:39.368Z,71.34
2022-09-14T03:23:07.268Z,71.52
2022-09-14T03:25:40.537Z,71.81
2022-09-14T03:28:07.940Z,71.94
2022-09-14T03:30:34.828Z,72.01
2022-09-14T03:33:04.295Z,72.03
2022-09-14T03:35:31.900Z,71.89
2022-09-14T03:37:59.630Z,71.93
2022-09-14T03:40:27.430Z,72.10
2022-09-14T03:42:54.866Z,71.96
2022-09-14T03:45:22.049Z,72.09
2022-09-14T03:47:49.632Z,72.03
2022-09-14T03:50:17.921Z,72.37
2022-09-14T03:52:45.045Z,72.70
2022-09-14T03:55:12.012Z,72.50
2022-09-14T03:57:39.014Z,72.76
2022-09-14T04:00:07.023Z,72.57
2022-09-14T04:02:34.075Z,72.88
2022-09-14T04:05:01.031Z,72.78
2022-09-14T04:07:28.077Z,72.97
2022-09-14T04:09:55.971Z,72.40
2022-09-14T04:12:22.860Z,72.74
2022-09-14T04:14:50.559Z,72.83
2022-09-14T04:17:17.878Z,72.63
2022-09-14T04:19:44.831Z,72.64
2022-09-14T04:22:11.923Z,72.77
2022-09-14T04:24:38.849Z,72.54
2022-09-14T04:27:05.798Z,72.85
2022-09-14T04:29:32.844Z,72.80
2022-09-14T04:31:59.764Z,73.28
2022-09-14T04:34:27.210Z,72.83
2022-09-14T04:36:54.276Z,72.72
2022-09-14T04:39:21.730Z,72.93
2022-09-14T04:41:49.147Z,72.83
2022-09-14T04:44:16.174Z,72.90
2022-09-14T04:46:46.724Z,72.79
2022-09-14T04:49:19.062Z,72.88
2022-09-14T04:51:46.413Z,73.03
2022-09-14T04:54:15.073Z,72.83
2022-09-14T04:56:42.218Z,73.71
2022-09-14T04:59:09.672Z,72.84
2022-09-14T05:01:40.457Z,72.95
2022-09-14T05:04:08.750Z,73.31
2022-09-14T05:06:37.948Z,73.24
2022-09-14T05:09:06.578Z,73.70
2022-09-14T05:11:35.136Z,73.38
2022-09-14T05:14:02.401Z,73.23
2022-09-14T05:16:31.269Z,73.31
2022-09-14T05:19:01.486Z,73.46
2022-09-14T05:21:29.155Z,73.80
2022-09-14T05:23:58.039Z,73.42
2022-09-14T05:26:29.030Z,73.92
2022-09-14T05:28:57.562Z,73.99
2022-09-14T05:31:25.995Z,73.89
2022-09-14T05:33:53.388Z,73.59
2022-09-14T05:36:20.738Z,73.48
2022-09-14T05:38:47.758Z,73.55
2022-09-14T05:41:15.565Z,73.56
2022-09-14T05:43:42.642Z,74.15
2022-09-14T05:46:17.840Z,73.39
2022-09-14T05:48:44.817Z,73.55
2022-09-14T05:51:14.601Z,73.52
2022-09-14T05:53:41.589Z,73.67
2022-09-14T05:56:10.630Z,73.87
2022-09-14T05:58:38.394Z,73.88
2022-09-14T06:01:13.411Z,74.15
2022-09-14T06:03:41.098Z,73.57
2022-09-14T06:06:08.945Z,73.82
2022-09-14T06:08:36.429Z,73.97
2022-09-14T06:11:13.545Z,73.81
2022-09-14T06:13:40.673Z,73.92
2022-09-14T06:16:18.979Z,74.07
2022-09-14T06:18:46.749Z,74.43
2022-09-14T06:21:19.242Z,74.26
2022-09-14T06:23:47.904Z,74.16
2022-09-14T06:26:15.082Z,74.43
2022-09-14T06:28:45.282Z,74.41
2022-09-14T06:31:13.297Z,74.90
2022-09-14T06:33:46.697Z,74.17
2022-09-14T06:36:15.552Z,74.87
2022-09-14T06:38:42.959Z,74.80
2022-09-14T06:41:12.383Z,75.17
2022-09-14T06:43:40.771Z,74.92
2022-09-14T06:46:15.949Z,74.91
2022-09-14T06:48:50.813Z,74.89
2022-09-14T06:51:25.029Z,75.30
2022-09-14T06:53:52.942Z,74.83
2022-09-14T06:56:20.281Z,75.37
2022-09-14T06:58:47.562Z,75.92
2022-09-14T07:01:16.599Z,75.75
2022-09-14T07:03:44.088Z,75.94
2022-09-14T07:06:13.941Z,76.42
2022-09-14T07:08:41.145Z,76.41
2022-09-14T07:11:09.724Z,76.31
2022-09-14T07:13:36.817Z,76.44
2022-09-14T07:16:04.239Z,76.56
2022-09-14T07:18:34.297Z,76.28
2022-09-14T07:21:14.311Z,76.13
2022-09-14T07:23:43.113Z,76.24
2022-09-14T07:26:14.793Z,75.96
2022-09-14T07:28:42.311Z,75.94
2022-09-14T07:31:25.164Z,76.28
2022-09-14T07:33:58.166Z,76.32
2022-09-14T07:36:32.764Z,75.99
2022-09-14T07:39:02.074Z,76.00
2022-09-14T07:41:30.419Z,75.95
2022-09-14T07:44:00.457Z,75.79
2022-09-14T07:46:28.870Z,76.21
2022-09-14T07:48:57.287Z,76.21
2022-09-14T07:51:24.981Z,76.02
2022-09-14T07:53:52.089Z,76.31
2022-09-14T07:56:19.450Z,76.19
2022-09-14T07:58:46.443Z,76.15
2022-09-14T08:01:20.353Z,75.44
2022-09-14T08:03:49.161Z,75.51
2022-09-14T08:06:24.010Z,75.27
2022-09-14T08:08:51.930Z,75.38
2022-09-14T08:11:20.175Z,75.14
2022-09-14T08:13:50.737Z,74.97
2022-09-14T08:16:19.269Z,74.85
2022-09-14T08:18:46.762Z,74.59
2022-09-14T08:21:15.823Z,74.59
2022-09-14T08:23:43.420Z,74.28
2022-09-14T08:26:21.243Z,74.30
2022-09-14T08:28:49.014Z,74.44
2022-09-14T08:31:21.371Z,74.77
2022-09-14T08:33:57.285Z,74.62
2022-09-14T08:36:25.970Z,74.76
2022-09-14T08:38:53.051Z,74.12
2022-09-14T08:41:29.916Z,73.94
2022-09-14T08:44:11.507Z,74.00
2022-09-14T08:46:49.890Z,73.48
2022-09-14T08:49:51.942Z,73.42
2022-09-14T08:52:28.821Z,72.83
2022-09-14T08:54:57.860Z,73.20
2022-09-14T08:57:29.402Z,72.83
2022-09-14T09:00:13.510Z,73.44
2022-09-14T09:03:11.176Z,72.74
2022-09-14T09:05:53.868Z,73.17
2022-09-14T09:08:34.718Z,72.87
2022-09-14T09:11:01.854Z,72.24
2022-09-14T09:13:31.345Z,72.01
2022-09-14T09:16:00.361Z,71.74
2022-09-14T09:18:33.282Z,71.19
2022-09-14T09:21:04.508Z,70.93
2022-09-14T09:23:33.365Z,70.45
2022-09-14T09:26:09.773Z,70.24
2022-09-14T09:28:41.071Z,70.26
2022-09-14T09:31:12.690Z,69.85
2022-09-14T09:33:41.523Z,69.83
2022-09-14T09:36:09.063Z,69.53
2022-09-14T09:38:35.945Z,69.54
2022-09-14T09:41:14.935Z,69.64
2022-09-14T09:44:01.817Z,69.36
2022-09-14T09:46:36.011Z,69.19
2022-09-14T09:49:14.652Z,69.19
2022-09-14T09:51:41.592Z,69.04
2022-09-14T09:54:15.326Z,68.43
2022-09-14T09:57:01.253Z,68.74
2022-09-14T09:59:38.086Z,68.00
2022-09-14T10:02:30.798Z,67.72
2022-09-14T10:05:20.469Z,67.39
2022-09-14T10:07:50.335Z,66.73
2022-09-14T10:10:19.801Z,66.24
2022-09-14T10:12:49.120Z,66.34
2022-09-14T10:15:17.828Z,65.87
2022-09-14T10:18:09.052Z,65.95
2022-09-14T10:20:40.252Z,65.57
2022-09-14T10:23:19.310Z,64.97
2022-09-14T10:25:54.622Z,64.82
2022-09-14T10:28:28.770Z,65.22
2022-09-14T10:31:01.713Z,64.38
2022-09-14T10:33:29.298Z,64.50
2022-09-14T10:36:04.914Z,64.04
2022-09-14T10:38:59.188Z,63.55
2022-09-14T10:41:41.887Z,63.63
2022-09-14T10:44:32.006Z,63.56
2022-09-14T10:47:04.915Z,63.07
2022-09-14T10:49:58.143Z,63.29
2022-09-14T10:52:41.919Z,63.21
2022-09-14T10:55:37.043Z,62.75
2022-09-14T10:58:18.124Z,62.66
2022-09-14T11:01:13.547Z,62.56
2022-09-14T11:03:53.791Z,62.28
2022-09-14T11:06:33.225Z,61.63
2022-09-14T11:09:02.487Z,60.70
2022-09-14T11:11:35.326Z,60.75
2022-09-14T11:14:27.341Z,60.22
2022-09-14T11:17:16.388Z,60.02
2022-09-14T11:20:16.227Z,59.29
2022-09-14T11:23:07.580Z,59.90
2022-09-14T11:25:43.574Z,59.16
2022-09-14T11:28:19.473Z,59.68
2022-09-14T11:31:12.239Z,59.20
2022-09-14T11:33:49.130Z,59.50
2022-09-14T11:36:28.361Z,59.68
2022-09-14T11:39:08.636Z,59.46
2022-09-14T11:41:43.889Z,59.54
2022-09-14T11:44:27.114Z,59.10
2022-09-14T11:47:19.537Z,59.16
2022-09-14T11:50:20.372Z,59.18
2022-09-14T11:52:48.680Z,59.00
2022-09-14T11:55:16.977Z,58.45
2022-09-14T11:57:44.947Z,58.54
2022-09-14T12:00:24.162Z,58.39
2022-09-14T12:03:14.263Z,57.85
2022-09-14T12:05:44.607Z,57.92
2022-09-14T12:08:28.336Z,57.63
2022-09-14T12:11:10.630Z,57.65
2022-09-14T12:13:37.545Z,57.27
2022-09-14T12:16:08.743Z,57.39
2022-09-14T12:18:40.117Z,57.41
2022-09-14T12:21:16.110Z,57.72
2022-09-14T12:23:44.914Z,56.86
2022-09-14T12:26:15.618Z,56.73
2022-09-14T12:28:50.683Z,56.25
2022-09-14T12:31:32.044Z,56.13
2022-09-14T12:34:22.212Z,56.10
2022-09-14T12:36:49.229Z,56.39
2022-09-14T12:39:27.106Z,56.38
2022-09-14T12:41:53.984Z,56.04
2022-09-14T12:44:43.145Z,55.94
2022-09-14T12:47:25.947Z,55.82
2022-09-14T12:49:53.940Z,55.48
2022-09-14T12:52:25.974Z,55.84
2022-09-14T12:55:38.033Z,55.83
2022-09-14T12:58:33.114Z,55.74
2022-09-14T13:01:06.309Z,55.51
2022-09-14T13:03:51.061Z,55.71
2022-09-14T13:06:19.489Z,55.65
2022-09-14T13:08:48.922Z,55.51
2022-09-14T13:11:45.441Z,55.09
2022-09-14T13:14:19.600Z,55.33
2022-09-14T13:16:48.826Z,55.06
2022-09-14T13:19:27.451Z,55.00
2022-09-14T13:21:57.106Z,54.87
2022-09-14T13:24:27.219Z,54.92
2022-09-14T13:26:57.092Z,55.07
2022-09-14T13:29:26.993Z,55.04
2022-09-14T13:31:54.536Z,54.95
2022-09-14T13:34:29.376Z,55.04
2022-09-14T13:36:57.417Z,55.44
2022-09-14T13:39:30.854Z,55.79
2022-09-14T13:41:58.527Z,55.70
2022-09-14T13:44:31.911Z,55.33
2022-09-14T13:46:59.885Z,55.06
2022-09-14T13:49:27.048Z,55.46
2022-09-14T13:52:33.934Z,55.39
2022-09-14T13:55:18.722Z,55.06
2022-09-14T13:58:11.952Z,54.96
2022-09-14T14:00:58.526Z,54.79
2022-09-14T14:03:27.193Z,54.61
2022-09-14T14:05:54.191Z,54.58
2022-09-14T14:08:35.776Z,55.04
2022-09-14T14:11:06.925Z,55.71
2022-09-14T14:13:35.969Z,55.13
2022-09-14T14:16:23.158Z,55.29
2022-09-14T14:18:54.164Z,54.91
2022-09-14T14:21:27.986Z,54.72
2022-09-14T14:24:26.111Z,54.63
2022-09-14T14:26:55.718Z,54.62
2022-09-14T14:29:23.006Z,54.21
2022-09-14T14:31:50.208Z,54.20
2022-09-14T14:34:28.457Z,54.57
2022-09-14T14:36:56.161Z,54.55
2022-09-14T14:39:24.552Z,54.24
2022-09-14T14:41:51.661Z,55.06
2022-09-14T14:44:22.045Z,54.74
2022-09-14T14:46:49.212Z,54.81
2022-09-14T14:49:17.759Z,54.47
2022-09-14T14:51:44.700Z,54.39
2022-09-14T14:54:11.705Z,54.01
2022-09-14T14:56:38.833Z,54.01
2022-09-14T14:59:26.567Z,54.62
2022-09-14T15:01:54.089Z,54.69
2022-09-14T15:04:21.199Z,54.81
2022-09-14T15:06:49.101Z,55.13
2022-09-14T15:09:22.365Z,54.80
2022-09-14T15:11:50.647Z,54.95
2022-09-14T15:14:19.031Z,54.57
2022-09-14T15:16:46.153Z,54.25
2022-09-14T15:19:13.377Z,54.30
2022-09-14T15:21:41.476Z,54.03
2022-09-14T15:24:08.810Z,53.71
2022-09-14T15:26:36.004Z,53.98
2022-09-14T15:29:03.278Z,53.71
2022-09-14T15:31:30.783Z,53.83
2022-09-14T15:33:59.768Z,53.59
2022-09-14T15:36:37.330Z,53.53
2022-09-14T15:39:05.215Z,53.78
2022-09-14T15:41:32.181Z,53.44
2022-09-14T15:43:59.227Z,52.69
2022-09-14T15:46:26.610Z,52.39
2022-09-14T15:48:54.665Z,52.45
2022-09-14T15:51:21.649Z,52.30
2022-09-14T15:53:49.902Z,52.54
2022-09-14T15:56:16.976Z,52.79
2022-09-14T15:58:47.907Z,52.62
2022-09-14T16:01:17.866Z,52.50
2022-09-14T16:03:45.100Z,52.36
2022-09-14T16:06:13.257Z,52.61
2022-09-14T16:08:40.993Z,52.75
2022-09-14T16:11:08.840Z,53.02
2022-09-14T16:13:35.937Z,53.26
2022-09-14T16:16:13.348Z,52.97
2022-09-14T16:18:40.718Z,53.02
2022-09-14T16:21:22.442Z,53.03
2022-09-14T16:23:53.371Z,53.56
2022-09-14T16:26:27.126Z,53.30
2022-09-14T16:28:55.019Z,53.67
2022-09-14T16:31:27.771Z,53.59
2022-09-14T16:33:58.894Z,54.33
2022-09-14T16:36:31.431Z,54.40
2022-09-14T16:39:00.540Z,53.97
2022-09-14T16:41:28.254Z,53.90
2022-09-14T16:43:59.135Z,54.38
2022-09-14T16:46:30.176Z,54.16
2022-09-14T16:48:58.708Z,54.58
2022-09-14T16:51:28.198Z,53.91
2022-09-14T16:53:55.335Z,53.92
2022-09-14T16:56:28.403Z,54.19
2022-09-14T16:58:57.371Z,54.90
2022-09-14T17:01:29.220Z,54.54
2022-09-14T17:03:58.537Z,54.38
2022-09-14T17:06:30.533Z,54.71
2022-09-14T17:09:00.496Z,54.49
2022-09-14T17:11:29.705Z,54.41
2022-09-14T17:13:57.378Z,54.27
2022-09-14T17:16:26.214Z,54.45
2022-09-14T17:18:56.212Z,54.19
2022-09-14T17:21:26.082Z,54.65
2022-09-14T17:23:52.997Z,54.48
2022-09-14T17:26:21.046Z,54.15
2022-09-14T17:28:49.797Z,54.31
2022-09-14T17:31:19.830Z,54.16
2022-09-14T17:33:47.756Z,54.80
2022-09-14T17:36:15.566Z,54.78
2022-09-14T17:38:43.914Z,54.30
2022-09-14T17:41:20.342Z,55.04
2022-09-14T17:43:56.967Z,54.79
2022-09-14T17:46:24.712Z,55.07
2022-09-14T17:48:51.971Z,55.08
2022-09-14T17:51:21.208Z,55.41
2022-09-14T17:53:49.948Z,54.95
2022-09-14T17:56:19.769Z,55.52
2022-09-14T17:58:47.786Z,55.65
2022-09-14T18:01:17.021Z,56.02
2022-09-14T18:03:50.202Z,55.64
2022-09-14T18:06:17.657Z,56.20
2022-09-14T18:08:44.590Z,56.01
2022-09-14T18:11:16.562Z,56.28
2022-09-14T18:13:45.146Z,56.55
2022-09-14T18:16:12.914Z,56.73
2022-09-14T18:18:40.046Z,56.38
2022-09-14T18:21:07.220Z,56.85
2022-09-14T18:23:34.344Z,56.94
2022-09-14T18:26:02.185Z,57.05
2022-09-14T18:28:29.088Z,56.65
2022-09-14T18:31:03.930Z,56.82
2022-09-14T18:33:30.944Z,56.80
2022-09-14T18:35:57.894Z,56.90
2022-09-14T18:38:26.823Z,56.93
2022-09-14T18:40:53.726Z,56.59
2022-09-14T18:43:20.913Z,57.04
2022-09-14T18:45:47.905Z,56.76
2022-09-14T18:48:15.178Z,56.89
2022-09-14T18:50:42.523Z,57.25
2022-09-14T18:53:09.458Z,57.29
2022-09-14T18:55:36.468Z,57.10
2022-09-14T18:58:03.390Z,57.14
2022-09-14T19:00:30.418Z,57.45
2022-09-14T19:02:57.429Z,57.91
2022-09-14T19:05:27.347Z,57.84
2022-09-14T19:07:54.475Z,58.26
2022-09-14T19:10:21.795Z,58.22
2022-09-14T19:12:49.061Z,58.66
2022-09-14T19:15:16.211Z,58.56
2022-09-14T19:17:43.360Z,59.08
2022-09-14T19:20:11.382Z,59.34
2022-09-14T19:22:38.355Z,59.29
2022-09-14T19:25:06.341Z,59.32
2022-09-14T19:27:33.327Z,59.58
2022-09-14T19:30:01.317Z,59.71
2022-09-14T19:32:28.358Z,59.90
2022-09-14T19:34:56.072Z,59.89
2022-09-14T19:37:24.657Z,60.20
2022-09-14T19:39:51.799Z,60.50
2022-09-14T19:42:22.668Z,60.63
2022-09-14T19:44:51.241Z,60.61
2022-09-14T19:47:18.133Z,60.90
2022-09-14T19:49:45.057Z,60.91
2022-09-14T19:52:12.127Z,60.74
2022-09-14T19:54:39.128Z,61.40
2022-09-14T19:57:06.699Z,61.08
2022-09-14T19:59:33.682Z,61.07
2022-09-14T20:02:00.835Z,61.12
2022-09-14T20:04:28.014Z,61.24
2022-09-14T20:06:56.863Z,61.64
2022-09-14T20:09:24.211Z,62.01
2022-09-14T20:11:52.571Z,62.13
2022-09-14T20:14:22.950Z,62.25
2022-09-14T20:16:58.053Z,61.88
2022-09-14T20:19:29.523Z,61.95
2022-09-14T20:21:56.884Z,62.06
2022-09-14T20:24:27.160Z,62.03
2022-09-14T20:26:56.598Z,62.33
2022-09-14T20:29:24.747Z,62.42
2022-09-14T20:31:52.203Z,62.66
2022-09-14T20:34:20.773Z,62.88
2022-09-14T20:36:51.590Z,62.92
2022-09-14T20:39:19.865Z,62.93
2022-09-14T20:41:46.780Z,62.87
2022-09-14T20:44:13.980Z,62.94
2022-09-14T20:46:42.686Z,63.22
2022-09-14T20:49:12.500Z,63.27
2022-09-14T20:51:39.909Z,63.11
2022-09-14T20:54:07.336Z,63.14
2022-09-14T20:56:35.350Z,63.62
2022-09-14T20:59:03.953Z,63.73
2022-09-14T21:01:32.603Z,63.24
2022-09-14T21:04:20.417Z,63.31
2022-09-14T21:06:49.149Z,63.80
2022-09-14T21:09:18.232Z,64.06
2022-09-14T21:11:45.953Z,63.56
2022-09-14T21:14:13.983Z,63.66
2022-09-14T21:16:43.141Z,63.79
2022-09-14T21:19:16.022Z,64.16
2022-09-14T21:21:43.152Z,64.28
2022-09-14T21:24:12.077Z,63.88
2022-09-14T21:26:42.724Z,64.02
2022-09-14T21:29:14.460Z,64.25
2022-09-14T21:31:41.822Z,64.27
2022-09-14T21:34:10.328Z,64.41
2022-09-14T21:36:41.161Z,64.18
2022-09-14T21:39:11.122Z,64.84
2022-09-14T21:41:39.447Z,64.74
2022-09-14T21:44:06.704Z,64.71
2022-09-14T21:46:33.760Z,64.85
2022-09-14T21:49:00.818Z,65.43
2022-09-14T21:51:30.546Z,65.31
2022-09-14T21:54:02.267Z,65.46
2022-09-14T21:56:31.585Z,64.92
2022-09-14T21:59:03.101Z,64.78
2022-09-14T22:01:30.303Z,65.21
2022-09-14T22:03:57.509Z,64.82
2022-09-14T22:06:27.391Z,65.07
2022-09-14T22:08:54.928Z,64.89
2022-09-14T22:11:24.404Z,65.29
2022-09-14T22:13:56.695Z,64.76
2022-09-14T22:16:24.766Z,65.37
2022-09-14T22:18:54.006Z,65.27
2022-09-14T22:21:21.651Z,65.19
2022-09-14T22:23:50.190Z,65.66
2022-09-14T22:26:19.658Z,65.54
2022-09-14T22:28:48.027Z,65.40
2022-09-14T22:31:15.741Z,65.61
2022-09-14T22:33:42.776Z,65.69
2022-09-14T22:36:10.357Z,65.55
2022-09-14T22:38:37.272Z,65.35
2022-09-14T22:41:06.525Z,65.41
2022-09-14T22:43:34.390Z,65.19
2022-09-14T22:46:01.998Z,65.66
2022-09-14T22:48:29.067Z,65.83
2022-09-14T22:50:58.109Z,65.76
2022-09-14T22:53:25.933Z,65.31
2022-09-14T22:55:52.804Z,65.47
2022-09-14T22:58:21.015Z,65.59
2022-09-14T23:00:48.076Z,65.72
2022-09-14T23:03:15.862Z,65.59
2022-09-14T23:06:09.148Z,65.48
2022-09-14T23:08:36.688Z,65.56
2022-09-14T23:11:08.997Z,66.28
2022-09-14T23:13:36.356Z,66.00
2022-09-14T23:16:10.421Z,66.25
2022-09-14T23:18:37.568Z,66.58
2022-09-14T23:21:04.653Z,66.74
2022-09-14T23:23:31.689Z,66.59
2022-09-14T23:26:07.102Z,66.46
2022-09-14T23:28:34.231Z,66.51
2022-09-14T23:31:01.299Z,66.52
2022-09-14T23:33:28.950Z,67.03
2022-09-14T23:35:56.187Z,66.78
2022-09-14T23:38:23.613Z,67.10
2022-09-14T23:40:50.638Z,67.40
2022-09-14T23:43:17.941Z,66.87
2022-09-14T23:45:45.656Z,67.75
2022-09-14T23:48:13.165Z,67.48
2022-09-14T23:50:40.577Z,68.13
2022-09-14T23:53:07.604Z,67.59
2022-09-14T23:55:34.654Z,67.82
2022-09-14T23:58:01.569Z,67.79
